Pelkie, MI

8:14 AM EDT on August 04, 2015 (GMT -0400)
Mooselake Farm | | Change Station
CLOSE
Current Station
Personal Weather Station
Location: Chassell, MI
Elevation: 935 ft
Nearby Weather Stations

Elev 935 ft 46.93 °N, 88.59 °W | Updated 15 minutes ago

Overcast
Overcast
56.1 °F
Feels Like 56.1 °F
N
0.0
Wind Variable Wind from WNW

Today
High -- | Low -- °F
--% Chance of Precip.
Yesterday
High -- | Low -- °F
Precip. -- in
6:38 AM 9:22 PM
Waning Gibbous, 78% visible
Pressure 29.87 in
Visibility 10.0 miles
Clouds Scattered Clouds 400 ft
Overcast 1500 ft
Dew Point 56 °F
Humidity 99%
Rainfall 0.08 in
Snow Depth Not available.
UV 0 out of 12
Pollen 7.30 out of 12
Air Quality Not available.
Flu Activity Not available.
SPECI KCMX 041209Z AUTO 33005KT 10SM SCT004 OVC015 14/13 A2987 RMK AO2 RAE1158 P0000 T01440128 TSNO

More Conditions Fewer Conditions

Pressure 29.87 in
Visibility 10.0 miles
Clouds Scattered Clouds 400 ft
Overcast 1500 ft
Dew Point 56 °F
Humidity 99%
Rainfall 0.08 in
Snow Depth Not available.
UV 0 out of 12
Pollen 7.30 out of 12
Air Quality Not available.
Flu Activity Not available.
SPECI KCMX 041209Z AUTO 33005KT 10SM SCT004 OVC015 14/13 A2987 RMK AO2 RAE1158 P0000 T01440128 TSNO

More Conditions Fewer Conditions

10-Day Weather Forecast

×

Almanac

Astronomy

Aug. 04, 2015 Rise Set
Actual Time
Civil Twilight
Nautical Twilight
Astronomical Twilight
Moon
Length of Visible Light
Length of Day
Tomorrow will be .
, % of the Moon is Illuminated

Today's Extremes

State Highs State Lows

Community

WunderPhotos

Upload Photos

1,843,907 photos uploaded!

WunderBlogs® & News

Nearby

Air Quality

  Air Quality AQ Index Pollutant
Not available.

Snow Depth

Station Depth Elevation

Earthquake Activity

City Distance Mag. Time & Date
Minimum magnitude displayed is 2.5.

Coastal Water Temperatures

Place Temperature

Stations

Nearby Weather Stations

Station Location Temp. Windchill Dew Point Humidity Wind Precip. Elev Updated Type